createdAt,value
2023-03-05T00:00:06.038Z,13.13
2023-03-05T00:05:09.296Z,13.22
2023-03-05T00:10:11.647Z,13.20
2023-03-05T00:15:14.082Z,13.19
2023-03-05T00:20:16.373Z,13.04
2023-03-05T00:25:18.715Z,12.83
2023-03-05T00:30:20.854Z,12.72
2023-03-05T00:35:23.130Z,12.81
2023-03-05T00:40:25.431Z,12.72
2023-03-05T00:45:27.595Z,12.79
2023-03-05T00:50:29.774Z,12.34
2023-03-05T00:55:31.877Z,12.28
2023-03-05T01:00:34.044Z,12.27
2023-03-05T01:05:36.645Z,12.49
2023-03-05T01:10:38.971Z,12.56
2023-03-05T01:15:41.218Z,12.43
2023-03-05T01:20:43.872Z,12.52
2023-03-05T01:25:46.051Z,12.50
2023-03-05T01:30:48.933Z,12.46
2023-03-05T01:35:51.051Z,12.44
2023-03-05T01:40:53.230Z,12.34
2023-03-05T01:46:13.849Z,12.15
2023-03-05T01:51:16.921Z,12.07
2023-03-05T01:56:19.102Z,11.92
2023-03-05T02:01:21.526Z,12.01
2023-03-05T02:06:23.673Z,12.06
2023-03-05T02:11:25.995Z,12.10
2023-03-05T02:16:37.032Z,12.06
2023-03-05T02:21:47.529Z,12.13
2023-03-05T02:26:49.728Z,12.00
2023-03-05T02:31:51.895Z,11.87
2023-03-05T02:36:55.898Z,11.57
2023-03-05T02:41:58.218Z,11.83
2023-03-05T02:47:00.447Z,11.83
2023-03-05T02:52:02.661Z,11.48
2023-03-05T02:57:04.818Z,11.24
2023-03-05T03:02:07.019Z,11.09
2023-03-05T03:07:09.148Z,11.24
2023-03-05T03:12:12.313Z,11.23
2023-03-05T03:17:17.204Z,11.12
2023-03-05T03:22:19.390Z,10.74
2023-03-05T03:27:21.470Z,10.86
2023-03-05T03:32:23.749Z,10.62
2023-03-05T03:37:26.180Z,10.26
2023-03-05T03:42:28.386Z,9.53
2023-03-05T03:47:31.365Z,9.81
2023-03-05T03:52:33.497Z,10.42
2023-03-05T03:57:37.054Z,10.59
2023-03-05T04:02:39.789Z,11.17
2023-03-05T04:07:41.950Z,11.36
2023-03-05T04:12:44.152Z,11.43
2023-03-05T04:17:46.270Z,11.35
2023-03-05T04:22:48.452Z,11.46
2023-03-05T04:27:50.622Z,11.49
2023-03-05T04:32:52.701Z,11.27
2023-03-05T04:37:54.790Z,10.38
2023-03-05T04:42:57.058Z,9.77
2023-03-05T04:47:59.570Z,10.40
2023-03-05T04:53:02.313Z,10.70
2023-03-05T04:58:04.629Z,11.09
2023-03-05T05:03:06.844Z,11.33
2023-03-05T05:08:09.540Z,11.51
2023-03-05T05:13:11.631Z,11.59
2023-03-05T05:18:13.759Z,11.76
2023-03-05T05:23:16.230Z,11.81
2023-03-05T05:28:18.379Z,11.77
2023-03-05T05:33:21.801Z,11.94
2023-03-05T05:38:23.879Z,11.96
2023-03-05T05:43:26.057Z,11.90
2023-03-05T05:48:33.440Z,12.13
2023-03-05T05:53:36.262Z,12.39
2023-03-05T05:58:39.983Z,12.49
2023-03-05T06:03:42.174Z,12.50
2023-03-05T06:08:44.877Z,12.48
2023-03-05T06:13:48.533Z,12.39
2023-03-05T06:18:52.218Z,12.30
2023-03-05T06:23:54.411Z,12.24
2023-03-05T06:28:57.570Z,12.17
2023-03-05T06:34:04.198Z,12.46
2023-03-05T06:39:06.843Z,12.72
2023-03-05T06:44:09.042Z,13.09
2023-03-05T06:49:12.030Z,13.39
2023-03-05T06:54:16.408Z,13.60
2023-03-05T06:59:18.824Z,13.47
2023-03-05T07:04:20.886Z,13.59
2023-03-05T07:09:23.556Z,13.38
2023-03-05T07:14:25.667Z,13.33
2023-03-05T07:19:27.815Z,13.32
2023-03-05T07:24:30.374Z,13.48
2023-03-05T07:29:32.626Z,13.61
2023-03-05T07:34:34.837Z,13.51
2023-03-05T07:39:36.951Z,13.93
2023-03-05T07:44:39.426Z,14.18
2023-03-05T07:49:42.154Z,14.46
2023-03-05T07:54:44.409Z,14.76
2023-03-05T07:59:46.682Z,13.87
2023-03-05T08:04:48.870Z,14.08
2023-03-05T08:09:51.057Z,14.32
2023-03-05T08:14:53.266Z,14.66
2023-03-05T08:19:58.587Z,15.08
2023-03-05T08:25:01.382Z,15.45
2023-03-05T08:30:03.705Z,15.23
2023-03-05T08:35:07.120Z,15.48
2023-03-05T08:40:10.672Z,15.59
2023-03-05T08:45:13.697Z,14.53
2023-03-05T08:50:16.394Z,13.60
2023-03-05T08:55:18.530Z,13.82
2023-03-05T09:00:21.023Z,14.25
2023-03-05T09:05:23.318Z,14.28
2023-03-05T09:10:25.570Z,13.77
2023-03-05T09:15:27.726Z,13.53
2023-03-05T09:20:29.881Z,13.41
2023-03-05T09:25:32.157Z,13.77
2023-03-05T09:30:35.440Z,13.49
2023-03-05T09:35:38.563Z,13.91
2023-03-05T09:41:08.102Z,14.04
2023-03-05T09:46:10.199Z,14.34
2023-03-05T09:51:21.762Z,14.30
2023-03-05T09:56:29.717Z,14.36
2023-03-05T10:01:40.015Z,14.87
2023-03-05T10:06:57.933Z,15.28
2023-03-05T10:12:06.267Z,15.62
2023-03-05T10:17:32.349Z,16.13
2023-03-05T10:22:43.213Z,16.70
2023-03-05T10:27:51.170Z,16.35
2023-03-05T10:33:24.269Z,15.78
2023-03-05T10:38:38.378Z,15.45
2023-03-05T10:43:49.898Z,15.35
2023-03-05T10:48:59.036Z,15.26
2023-03-05T10:54:19.933Z,15.41
2023-03-05T10:59:22.125Z,15.52
2023-03-05T11:04:32.438Z,15.46
2023-03-05T11:09:34.756Z,15.56
2023-03-05T11:14:41.206Z,15.74
2023-03-05T11:19:43.475Z,15.94
2023-03-05T11:25:03.316Z,15.81
2023-03-05T11:30:22.866Z,14.95
2023-03-05T11:35:34.579Z,14.62
2023-03-05T11:40:36.792Z,15.02
2023-03-05T11:45:40.476Z,15.33
2023-03-05T11:50:46.024Z,15.65
2023-03-05T11:55:57.016Z,15.83
2023-03-05T12:01:02.156Z,16.05
2023-03-05T12:06:09.999Z,16.49
2023-03-05T12:11:24.475Z,16.65
2023-03-05T12:17:03.367Z,16.89
2023-03-05T12:22:16.045Z,17.12
2023-03-05T12:27:40.406Z,17.10
2023-03-05T12:32:46.024Z,17.33
2023-03-05T12:37:51.150Z,17.69
2023-03-05T12:43:07.216Z,18.02
2023-03-05T12:48:14.805Z,18.21
2023-03-05T12:53:20.619Z,18.21
2023-03-05T12:58:45.710Z,18.26
2023-03-05T13:03:58.691Z,17.83
2023-03-05T13:09:15.047Z,18.11
2023-03-05T13:14:57.787Z,17.46
2023-03-05T13:20:02.076Z,17.40
2023-03-05T13:25:15.230Z,17.72
2023-03-05T13:30:35.689Z,17.68
2023-03-05T13:35:46.107Z,17.41
2023-03-05T13:41:03.470Z,17.22
2023-03-05T13:46:05.888Z,17.14
2023-03-05T13:51:10.010Z,16.70
2023-03-05T13:56:18.954Z,16.85
2023-03-05T14:01:37.074Z,17.21
2023-03-05T14:07:10.063Z,17.25
2023-03-05T14:12:34.955Z,17.81
2023-03-05T14:17:42.807Z,17.66
2023-03-05T14:22:46.866Z,17.39
2023-03-05T14:27:49.224Z,17.04
2023-03-05T14:32:54.931Z,16.60
2023-03-05T14:37:59.220Z,16.47
2023-03-05T14:43:10.949Z,16.02
2023-03-05T14:48:16.419Z,15.49
2023-03-05T14:53:25.057Z,15.00
2023-03-05T14:58:32.929Z,13.91
2023-03-05T15:03:35.182Z,14.02
2023-03-05T15:08:37.366Z,14.08
2023-03-05T15:13:39.725Z,13.99
2023-03-05T15:18:42.764Z,14.02
2023-03-05T15:23:45.670Z,14.14
2023-03-05T15:28:48.422Z,14.16
2023-03-05T15:33:50.648Z,14.27
2023-03-05T15:38:52.802Z,13.78
2023-03-05T15:43:54.949Z,13.55
2023-03-05T15:48:57.150Z,14.06
2023-03-05T15:53:59.397Z,14.32
2023-03-05T15:59:02.941Z,14.39
2023-03-05T16:04:05.982Z,14.06
2023-03-05T16:09:08.313Z,13.88
2023-03-05T16:14:11.064Z,12.88
2023-03-05T16:19:16.463Z,12.83
2023-03-05T16:24:18.648Z,13.21
2023-03-05T16:29:21.672Z,13.55
2023-03-05T16:34:24.004Z,13.92
2023-03-05T16:39:26.868Z,14.01
2023-03-05T16:44:29.010Z,14.24
2023-03-05T16:49:31.720Z,14.36
2023-03-05T16:54:34.728Z,14.46
2023-03-05T16:59:38.230Z,14.34
2023-03-05T17:04:40.733Z,14.27
2023-03-05T17:09:45.567Z,14.38
2023-03-05T17:14:48.174Z,14.18
2023-03-05T17:19:50.384Z,14.12
2023-03-05T17:24:52.717Z,13.84
2023-03-05T17:29:54.997Z,13.72
2023-03-05T17:34:57.250Z,13.93
2023-03-05T17:39:59.425Z,13.93
2023-03-05T17:45:01.962Z,13.73
2023-03-05T17:50:04.725Z,13.97
2023-03-05T17:55:10.515Z,14.01
2023-03-05T18:00:19.011Z,13.97
2023-03-05T18:05:23.795Z,14.02
2023-03-05T18:10:27.390Z,14.16
2023-03-05T18:15:30.177Z,14.14
2023-03-05T18:20:34.905Z,14.03
2023-03-05T18:25:37.772Z,13.95
2023-03-05T18:30:41.240Z,14.18
2023-03-05T18:35:43.475Z,14.06
2023-03-05T18:40:47.475Z,14.09
2023-03-05T18:45:55.608Z,13.93
2023-03-05T18:50:58.599Z,13.94
2023-03-05T18:56:01.972Z,13.92
2023-03-05T19:01:05.579Z,13.93
2023-03-05T19:06:08.294Z,13.99
2023-03-05T19:11:20.566Z,14.06
2023-03-05T19:16:27.052Z,14.12
2023-03-05T19:21:32.926Z,14.17
2023-03-05T19:26:35.074Z,13.89
2023-03-05T19:31:37.984Z,13.84
2023-03-05T19:36:40.106Z,13.30
2023-03-05T19:41:42.549Z,13.24
2023-03-05T19:46:44.820Z,13.21
2023-03-05T19:51:47.835Z,13.44
2023-03-05T19:56:53.564Z,13.76
2023-03-05T20:01:57.842Z,13.83
2023-03-05T20:07:00.138Z,13.87
2023-03-05T20:12:05.123Z,13.68
2023-03-05T20:17:07.409Z,13.67
2023-03-05T20:22:09.624Z,13.60
2023-03-05T20:27:11.765Z,13.62
2023-03-05T20:32:15.489Z,13.53
2023-03-05T20:38:22.044Z,13.52
2023-03-05T20:43:26.629Z,13.49
2023-03-05T20:48:34.361Z,13.37
2023-03-05T20:53:37.075Z,13.57
2023-03-05T20:58:39.672Z,13.64
2023-03-05T21:03:42.150Z,13.80
2023-03-05T21:08:44.327Z,13.65
2023-03-05T21:13:47.080Z,13.72
2023-03-05T21:18:49.674Z,13.55
2023-03-05T21:23:52.516Z,13.69
2023-03-05T21:28:54.700Z,13.66
2023-03-05T21:33:57.194Z,13.55
2023-03-05T21:39:00.708Z,13.50
2023-03-05T21:44:04.405Z,13.46
2023-03-05T21:49:07.345Z,13.54
2023-03-05T21:54:09.797Z,13.55
2023-03-05T21:59:12.309Z,13.37
2023-03-05T22:04:15.377Z,13.25
2023-03-05T22:09:17.735Z,13.26
2023-03-05T22:14:19.983Z,13.09
2023-03-05T22:19:23.659Z,13.31
2023-03-05T22:24:25.970Z,13.09
2023-03-05T22:29:29.309Z,12.95
2023-03-05T22:34:31.409Z,12.72
2023-03-05T22:39:33.768Z,12.54
2023-03-05T22:44:36.262Z,12.56
2023-03-05T22:49:38.492Z,12.62
2023-03-05T22:54:40.652Z,12.58
2023-03-05T22:59:42.806Z,12.47
2023-03-05T23:04:50.298Z,12.39
2023-03-05T23:09:56.965Z,12.33
2023-03-05T23:15:04.370Z,12.28
2023-03-05T23:20:11.888Z,12.22
2023-03-05T23:25:15.592Z,12.29
2023-03-05T23:30:21.734Z,12.35
2023-03-05T23:35:29.656Z,12.39
2023-03-05T23:40:42.146Z,12.29
2023-03-05T23:45:48.515Z,12.12
2023-03-05T23:50:50.841Z,11.89
2023-03-05T23:55:54.167Z,11.82
